sensor_id;sensor_type;location;lat;lon;timestamp;P1;durP1;ratioP1;P2;durP2;ratioP2
15679;SDS011;15488;48.114;11.532;2022-08-06T00:00:11;3.60;;;2.53;;
15679;SDS011;15488;48.114;11.532;2022-08-06T00:02:39;3.77;;;2.50;;
15679;SDS011;15488;48.114;11.532;2022-08-06T00:05:07;2.40;;;2.20;;
15679;SDS011;15488;48.114;11.532;2022-08-06T00:07:36;2.87;;;2.50;;
15679;SDS011;15488;48.114;11.532;2022-08-06T00:10:04;3.10;;;2.10;;
15679;SDS011;15488;48.114;11.532;2022-08-06T00:12:32;2.50;;;2.00;;
15679;SDS011;15488;48.114;11.532;2022-08-06T00:15:00;2.50;;;2.30;;
15679;SDS011;15488;48.114;11.532;2022-08-06T00:17:28;2.47;;;2.27;;
15679;SDS011;15488;48.114;11.532;2022-08-06T00:19:55;3.10;;;2.37;;
15679;SDS011;15488;48.114;11.532;2022-08-06T00:22:23;2.97;;;2.40;;
15679;SDS011;15488;48.114;11.532;2022-08-06T00:24:51;3.63;;;2.60;;
15679;SDS011;15488;48.114;11.532;2022-08-06T00:27:19;2.57;;;2.20;;
15679;SDS011;15488;48.114;11.532;2022-08-06T00:29:46;3.00;;;2.40;;
15679;SDS011;15488;48.114;11.532;2022-08-06T00:32:14;3.80;;;2.50;;
15679;SDS011;15488;48.114;11.532;2022-08-06T00:34:42;2.70;;;2.47;;
15679;SDS011;15488;48.114;11.532;2022-08-06T00:37:10;2.83;;;2.57;;
15679;SDS011;15488;48.114;11.532;2022-08-06T00:39:37;3.10;;;2.80;;
15679;SDS011;15488;48.114;11.532;2022-08-06T00:42:06;3.67;;;2.77;;
15679;SDS011;15488;48.114;11.532;2022-08-06T00:44:34;3.03;;;2.73;;
15679;SDS011;15488;48.114;11.532;2022-08-06T00:47:02;2.93;;;2.67;;
15679;SDS011;15488;48.114;11.532;2022-08-06T00:49:29;2.77;;;2.47;;
15679;SDS011;15488;48.114;11.532;2022-08-06T00:51:57;3.23;;;2.50;;
15679;SDS011;15488;48.114;11.532;2022-08-06T00:54:25;3.37;;;2.50;;
15679;SDS011;15488;48.114;11.532;2022-08-06T00:56:52;2.60;;;2.40;;
15679;SDS011;15488;48.114;11.532;2022-08-06T00:59:21;2.90;;;2.60;;
15679;SDS011;15488;48.114;11.532;2022-08-06T01:01:48;2.90;;;2.40;;
15679;SDS011;15488;48.114;11.532;2022-08-06T01:04:16;3.40;;;2.80;;
15679;SDS011;15488;48.114;11.532;2022-08-06T01:06:44;4.73;;;2.50;;
15679;SDS011;15488;48.114;11.532;2022-08-06T01:09:11;3.20;;;2.40;;
15679;SDS011;15488;48.114;11.532;2022-08-06T01:11:39;2.20;;;2.00;;
15679;SDS011;15488;48.114;11.532;2022-08-06T01:14:06;3.17;;;2.43;;
15679;SDS011;15488;48.114;11.532;2022-08-06T01:16:37;2.33;;;2.13;;
15679;SDS011;15488;48.114;11.532;2022-08-06T01:19:16;2.27;;;2.00;;
15679;SDS011;15488;48.114;11.532;2022-08-06T01:22:01;2.40;;;2.20;;
15679;SDS011;15488;48.114;11.532;2022-08-06T01:27:41;3.20;;;2.20;;
15679;SDS011;15488;48.114;11.532;2022-08-06T01:30:13;2.30;;;2.10;;
15679;SDS011;15488;48.114;11.532;2022-08-06T01:32:45;3.30;;;2.60;;
15679;SDS011;15488;48.114;11.532;2022-08-06T01:35:17;2.20;;;2.00;;
15679;SDS011;15488;48.114;11.532;2022-08-06T01:37:50;2.20;;;2.00;;
15679;SDS011;15488;48.114;11.532;2022-08-06T01:40:24;2.20;;;2.00;;
15679;SDS011;15488;48.114;11.532;2022-08-06T01:42:55;1.93;;;1.50;;
15679;SDS011;15488;48.114;11.532;2022-08-06T01:45:25;2.07;;;1.80;;
15679;SDS011;15488;48.114;11.532;2022-08-06T01:47:56;1.87;;;1.77;;
15679;SDS011;15488;48.114;11.532;2022-08-06T01:50:28;2.30;;;2.10;;
15679;SDS011;15488;48.114;11.532;2022-08-06T01:52:58;2.40;;;2.00;;
15679;SDS011;15488;48.114;11.532;2022-08-06T01:55:30;2.43;;;2.20;;
15679;SDS011;15488;48.114;11.532;2022-08-06T01:58:03;3.00;;;1.90;;
15679;SDS011;15488;48.114;11.532;2022-08-06T02:00:33;2.17;;;1.90;;
15679;SDS011;15488;48.114;11.532;2022-08-06T02:03:06;2.50;;;1.90;;
15679;SDS011;15488;48.114;11.532;2022-08-06T02:05:39;1.87;;;1.77;;
15679;SDS011;15488;48.114;11.532;2022-08-06T02:08:09;2.17;;;1.97;;
15679;SDS011;15488;48.114;11.532;2022-08-06T02:10:41;3.27;;;2.00;;
15679;SDS011;15488;48.114;11.532;2022-08-06T02:13:12;2.40;;;2.17;;
15679;SDS011;15488;48.114;11.532;2022-08-06T02:15:42;2.33;;;1.97;;
15679;SDS011;15488;48.114;11.532;2022-08-06T02:18:14;2.97;;;2.20;;
15679;SDS011;15488;48.114;11.532;2022-08-06T02:20:45;3.50;;;2.17;;
15679;SDS011;15488;48.114;11.532;2022-08-06T02:23:18;2.30;;;2.10;;
15679;SDS011;15488;48.114;11.532;2022-08-06T02:25:48;2.37;;;2.17;;
15679;SDS011;15488;48.114;11.532;2022-08-06T02:28:21;2.20;;;2.00;;
15679;SDS011;15488;48.114;11.532;2022-08-06T02:30:53;2.30;;;2.10;;
15679;SDS011;15488;48.114;11.532;2022-08-06T02:33:22;2.27;;;2.13;;
15679;SDS011;15488;48.114;11.532;2022-08-06T02:35:50;2.30;;;2.10;;
15679;SDS011;15488;48.114;11.532;2022-08-06T02:38:35;3.03;;;2.60;;
15679;SDS011;15488;48.114;11.532;2022-08-06T02:41:09;2.93;;;2.17;;
15679;SDS011;15488;48.114;11.532;2022-08-06T02:43:47;2.73;;;2.20;;
15679;SDS011;15488;48.114;11.532;2022-08-06T02:46:20;2.40;;;2.20;;
15679;SDS011;15488;48.114;11.532;2022-08-06T02:48:53;2.50;;;2.27;;
15679;SDS011;15488;48.114;11.532;2022-08-06T02:51:25;2.60;;;2.40;;
15679;SDS011;15488;48.114;11.532;2022-08-06T02:53:59;2.70;;;2.40;;
15679;SDS011;15488;48.114;11.532;2022-08-06T02:56:33;2.57;;;2.37;;
15679;SDS011;15488;48.114;11.532;2022-08-06T02:59:05;2.47;;;2.27;;
15679;SDS011;15488;48.114;11.532;2022-08-06T03:01:36;2.70;;;2.50;;
15679;SDS011;15488;48.114;11.532;2022-08-06T03:04:07;3.90;;;2.40;;
15679;SDS011;15488;48.114;11.532;2022-08-06T03:06:36;2.80;;;2.60;;
15679;SDS011;15488;48.114;11.532;2022-08-06T03:09:07;2.70;;;2.50;;
15679;SDS011;15488;48.114;11.532;2022-08-06T03:11:37;3.70;;;2.90;;
15679;SDS011;15488;48.114;11.532;2022-08-06T03:14:08;2.83;;;2.63;;
15679;SDS011;15488;48.114;11.532;2022-08-06T03:16:36;3.13;;;2.83;;
15679;SDS011;15488;48.114;11.532;2022-08-06T03:19:07;3.23;;;2.80;;
15679;SDS011;15488;48.114;11.532;2022-08-06T03:21:36;3.50;;;2.87;;
15679;SDS011;15488;48.114;11.532;2022-08-06T03:24:06;3.63;;;3.27;;
15679;SDS011;15488;48.114;11.532;2022-08-06T03:26:36;3.87;;;3.53;;
15679;SDS011;15488;48.114;11.532;2022-08-06T03:29:05;4.87;;;3.77;;
15679;SDS011;15488;48.114;11.532;2022-08-06T03:31:35;4.50;;;3.93;;
15679;SDS011;15488;48.114;11.532;2022-08-06T03:34:05;4.70;;;4.13;;
15679;SDS011;15488;48.114;11.532;2022-08-06T03:36:34;4.63;;;4.17;;
15679;SDS011;15488;48.114;11.532;2022-08-06T03:39:03;4.40;;;4.00;;
15679;SDS011;15488;48.114;11.532;2022-08-06T03:41:35;5.43;;;4.30;;
15679;SDS011;15488;48.114;11.532;2022-08-06T03:44:04;6.10;;;5.13;;
15679;SDS011;15488;48.114;11.532;2022-08-06T03:46:36;5.97;;;5.13;;
15679;SDS011;15488;48.114;11.532;2022-08-06T03:49:08;5.67;;;5.00;;
15679;SDS011;15488;48.114;11.532;2022-08-06T03:51:38;5.83;;;5.23;;
15679;SDS011;15488;48.114;11.532;2022-08-06T03:54:08;7.57;;;5.50;;
15679;SDS011;15488;48.114;11.532;2022-08-06T03:56:37;6.60;;;5.13;;
15679;SDS011;15488;48.114;11.532;2022-08-06T03:59:07;6.10;;;5.50;;
15679;SDS011;15488;48.114;11.532;2022-08-06T04:01:40;6.00;;;5.40;;
15679;SDS011;15488;48.114;11.532;2022-08-06T04:04:11;6.10;;;5.37;;
15679;SDS011;15488;48.114;11.532;2022-08-06T04:06:41;6.60;;;5.67;;
15679;SDS011;15488;48.114;11.532;2022-08-06T04:09:10;5.90;;;5.30;;
15679;SDS011;15488;48.114;11.532;2022-08-06T04:11:40;5.50;;;5.00;;
15679;SDS011;15488;48.114;11.532;2022-08-06T04:14:09;5.57;;;4.87;;
15679;SDS011;15488;48.114;11.532;2022-08-06T04:16:40;5.77;;;5.13;;
15679;SDS011;15488;48.114;11.532;2022-08-06T04:19:10;5.67;;;4.97;;
15679;SDS011;15488;48.114;11.532;2022-08-06T04:21:39;6.50;;;5.47;;
15679;SDS011;15488;48.114;11.532;2022-08-06T04:24:07;6.30;;;5.70;;
15679;SDS011;15488;48.114;11.532;2022-08-06T04:26:35;6.07;;;5.47;;
15679;SDS011;15488;48.114;11.532;2022-08-06T04:29:06;6.37;;;5.70;;
15679;SDS011;15488;48.114;11.532;2022-08-06T04:31:36;7.90;;;6.10;;
15679;SDS011;15488;48.114;11.532;2022-08-06T04:34:07;6.87;;;6.17;;
15679;SDS011;15488;48.114;11.532;2022-08-06T04:36:36;9.40;;;6.90;;
15679;SDS011;15488;48.114;11.532;2022-08-06T04:39:05;7.47;;;6.50;;
15679;SDS011;15488;48.114;11.532;2022-08-06T04:41:33;9.00;;;7.17;;
15679;SDS011;15488;48.114;11.532;2022-08-06T04:44:02;8.57;;;7.23;;
15679;SDS011;15488;48.114;11.532;2022-08-06T04:46:30;9.53;;;7.27;;
15679;SDS011;15488;48.114;11.532;2022-08-06T04:48:58;12.43;;;7.60;;
15679;SDS011;15488;48.114;11.532;2022-08-06T04:51:28;8.03;;;6.87;;
15679;SDS011;15488;48.114;11.532;2022-08-06T04:53:56;7.60;;;6.80;;
15679;SDS011;15488;48.114;11.532;2022-08-06T04:56:24;8.20;;;7.07;;
15679;SDS011;15488;48.114;11.532;2022-08-06T04:58:51;8.60;;;7.30;;
15679;SDS011;15488;48.114;11.532;2022-08-06T05:01:19;9.97;;;6.77;;
15679;SDS011;15488;48.114;11.532;2022-08-06T05:03:48;8.73;;;7.57;;
15679;SDS011;15488;48.114;11.532;2022-08-06T05:06:17;9.13;;;7.13;;
15679;SDS011;15488;48.114;11.532;2022-08-06T05:08:51;8.10;;;7.07;;
15679;SDS011;15488;48.114;11.532;2022-08-06T05:11:23;8.50;;;7.47;;
15679;SDS011;15488;48.114;11.532;2022-08-06T05:13:57;8.20;;;7.30;;
15679;SDS011;15488;48.114;11.532;2022-08-06T05:16:32;8.27;;;7.50;;
15679;SDS011;15488;48.114;11.532;2022-08-06T05:19:04;8.20;;;7.40;;
15679;SDS011;15488;48.114;11.532;2022-08-06T05:21:37;8.00;;;7.13;;
15679;SDS011;15488;48.114;11.532;2022-08-06T05:24:08;7.77;;;6.90;;
15679;SDS011;15488;48.114;11.532;2022-08-06T05:26:36;6.63;;;5.93;;
15679;SDS011;15488;48.114;11.532;2022-08-06T05:29:04;6.67;;;6.00;;
15679;SDS011;15488;48.114;11.532;2022-08-06T05:31:33;5.77;;;5.10;;
15679;SDS011;15488;48.114;11.532;2022-08-06T05:34:05;6.10;;;5.60;;
15679;SDS011;15488;48.114;11.532;2022-08-06T05:36:36;6.13;;;5.53;;
15679;SDS011;15488;48.114;11.532;2022-08-06T05:39:04;6.43;;;5.77;;
15679;SDS011;15488;48.114;11.532;2022-08-06T05:41:35;6.10;;;5.57;;
15679;SDS011;15488;48.114;11.532;2022-08-06T05:44:03;7.10;;;5.73;;
15679;SDS011;15488;48.114;11.532;2022-08-06T05:46:33;6.37;;;5.73;;
15679;SDS011;15488;48.114;11.532;2022-08-06T05:49:05;6.30;;;5.70;;
15679;SDS011;15488;48.114;11.532;2022-08-06T05:51:42;6.57;;;5.93;;
15679;SDS011;15488;48.114;11.532;2022-08-06T05:54:15;6.10;;;5.60;;
15679;SDS011;15488;48.114;11.532;2022-08-06T05:56:55;6.63;;;6.03;;
15679;SDS011;15488;48.114;11.532;2022-08-06T05:59:28;7.20;;;6.60;;
15679;SDS011;15488;48.114;11.532;2022-08-06T06:02:00;6.60;;;6.10;;
15679;SDS011;15488;48.114;11.532;2022-08-06T06:04:29;6.17;;;5.77;;
15679;SDS011;15488;48.114;11.532;2022-08-06T06:07:02;4.93;;;4.63;;
15679;SDS011;15488;48.114;11.532;2022-08-06T06:09:30;4.47;;;4.07;;
15679;SDS011;15488;48.114;11.532;2022-08-06T06:12:00;4.77;;;4.33;;
15679;SDS011;15488;48.114;11.532;2022-08-06T06:14:34;4.17;;;3.87;;
15679;SDS011;15488;48.114;11.532;2022-08-06T06:17:06;4.70;;;3.70;;
15679;SDS011;15488;48.114;11.532;2022-08-06T06:19:49;4.33;;;3.93;;
15679;SDS011;15488;48.114;11.532;2022-08-06T06:22:25;4.47;;;4.10;;
15679;SDS011;15488;48.114;11.532;2022-08-06T06:25:01;4.50;;;4.10;;
15679;SDS011;15488;48.114;11.532;2022-08-06T06:27:37;4.63;;;4.03;;
15679;SDS011;15488;48.114;11.532;2022-08-06T06:30:13;4.50;;;4.10;;
15679;SDS011;15488;48.114;11.532;2022-08-06T06:32:49;4.57;;;4.17;;
15679;SDS011;15488;48.114;11.532;2022-08-06T06:35:27;4.63;;;4.23;;
15679;SDS011;15488;48.114;11.532;2022-08-06T06:38:01;5.00;;;4.60;;
15679;SDS011;15488;48.114;11.532;2022-08-06T06:40:46;4.80;;;4.40;;
15679;SDS011;15488;48.114;11.532;2022-08-06T06:43:22;4.77;;;4.37;;
15679;SDS011;15488;48.114;11.532;2022-08-06T06:45:56;4.97;;;4.57;;
15679;SDS011;15488;48.114;11.532;2022-08-06T06:48:32;4.90;;;4.40;;
15679;SDS011;15488;48.114;11.532;2022-08-06T06:51:02;5.20;;;4.70;;
15679;SDS011;15488;48.114;11.532;2022-08-06T06:53:35;5.70;;;4.70;;
15679;SDS011;15488;48.114;11.532;2022-08-06T06:56:08;5.00;;;4.47;;
15679;SDS011;15488;48.114;11.532;2022-08-06T06:58:40;4.73;;;4.33;;
15679;SDS011;15488;48.114;11.532;2022-08-06T07:01:13;6.23;;;4.90;;
15679;SDS011;15488;48.114;11.532;2022-08-06T07:03:44;4.83;;;4.43;;
15679;SDS011;15488;48.114;11.532;2022-08-06T07:06:16;4.80;;;4.40;;
15679;SDS011;15488;48.114;11.532;2022-08-06T07:08:45;5.77;;;4.80;;
15679;SDS011;15488;48.114;11.532;2022-08-06T07:11:22;5.23;;;4.77;;
15679;SDS011;15488;48.114;11.532;2022-08-06T07:13:55;4.70;;;4.33;;
15679;SDS011;15488;48.114;11.532;2022-08-06T07:16:25;4.50;;;4.10;;
15679;SDS011;15488;48.114;11.532;2022-08-06T07:18:54;4.20;;;3.60;;
15679;SDS011;15488;48.114;11.532;2022-08-06T07:21:24;4.00;;;3.70;;
15679;SDS011;15488;48.114;11.532;2022-08-06T07:23:52;4.20;;;3.90;;
15679;SDS011;15488;48.114;11.532;2022-08-06T07:26:21;4.70;;;4.30;;
15679;SDS011;15488;48.114;11.532;2022-08-06T07:28:51;4.63;;;4.33;;
15679;SDS011;15488;48.114;11.532;2022-08-06T07:31:23;4.70;;;4.30;;
15679;SDS011;15488;48.114;11.532;2022-08-06T07:33:53;4.90;;;4.50;;
15679;SDS011;15488;48.114;11.532;2022-08-06T07:36:26;4.53;;;4.13;;
15679;SDS011;15488;48.114;11.532;2022-08-06T07:38:58;4.63;;;4.23;;
15679;SDS011;15488;48.114;11.532;2022-08-06T07:41:30;4.53;;;4.13;;
15679;SDS011;15488;48.114;11.532;2022-08-06T07:44:02;4.93;;;4.60;;
15679;SDS011;15488;48.114;11.532;2022-08-06T07:46:34;6.27;;;5.63;;
15679;SDS011;15488;48.114;11.532;2022-08-06T07:49:06;5.73;;;5.33;;
15679;SDS011;15488;48.114;11.532;2022-08-06T07:51:38;6.47;;;5.87;;
15679;SDS011;15488;48.114;11.532;2022-08-06T07:54:07;7.03;;;6.30;;
15679;SDS011;15488;48.114;11.532;2022-08-06T07:56:37;7.17;;;6.47;;
15679;SDS011;15488;48.114;11.532;2022-08-06T07:59:10;7.27;;;6.57;;
15679;SDS011;15488;48.114;11.532;2022-08-06T08:01:40;6.93;;;6.43;;
15679;SDS011;15488;48.114;11.532;2022-08-06T08:04:11;7.60;;;6.80;;
15679;SDS011;15488;48.114;11.532;2022-08-06T08:06:58;7.43;;;6.73;;
15679;SDS011;15488;48.114;11.532;2022-08-06T08:09:28;7.87;;;7.17;;
15679;SDS011;15488;48.114;11.532;2022-08-06T08:11:56;7.90;;;7.20;;
15679;SDS011;15488;48.114;11.532;2022-08-06T08:14:25;7.70;;;7.10;;
15679;SDS011;15488;48.114;11.532;2022-08-06T08:16:54;7.80;;;7.10;;
15679;SDS011;15488;48.114;11.532;2022-08-06T08:19:23;8.57;;;7.60;;
15679;SDS011;15488;48.114;11.532;2022-08-06T08:21:56;8.70;;;7.83;;
15679;SDS011;15488;48.114;11.532;2022-08-06T08:24:26;8.63;;;7.93;;
15679;SDS011;15488;48.114;11.532;2022-08-06T08:26:58;8.57;;;7.77;;
15679;SDS011;15488;48.114;11.532;2022-08-06T08:29:28;8.67;;;7.87;;
15679;SDS011;15488;48.114;11.532;2022-08-06T08:31:58;8.60;;;7.80;;
15679;SDS011;15488;48.114;11.532;2022-08-06T08:34:27;8.77;;;7.60;;
15679;SDS011;15488;48.114;11.532;2022-08-06T08:36:54;8.67;;;7.87;;
15679;SDS011;15488;48.114;11.532;2022-08-06T08:39:22;9.07;;;8.17;;
15679;SDS011;15488;48.114;11.532;2022-08-06T08:41:54;9.37;;;8.40;;
15679;SDS011;15488;48.114;11.532;2022-08-06T08:44:27;9.30;;;8.40;;
15679;SDS011;15488;48.114;11.532;2022-08-06T08:46:58;11.10;;;8.73;;
15679;SDS011;15488;48.114;11.532;2022-08-06T08:49:28;9.97;;;8.97;;
15679;SDS011;15488;48.114;11.532;2022-08-06T08:52:03;10.53;;;9.43;;
15679;SDS011;15488;48.114;11.532;2022-08-06T08:54:35;10.73;;;9.73;;
15679;SDS011;15488;48.114;11.532;2022-08-06T08:57:06;10.37;;;9.37;;
15679;SDS011;15488;48.114;11.532;2022-08-06T08:59:38;10.93;;;9.83;;
15679;SDS011;15488;48.114;11.532;2022-08-06T09:02:09;11.33;;;10.23;;
15679;SDS011;15488;48.114;11.532;2022-08-06T09:04:40;11.63;;;10.47;;
15679;SDS011;15488;48.114;11.532;2022-08-06T09:07:09;11.53;;;10.33;;
15679;SDS011;15488;48.114;11.532;2022-08-06T09:09:37;11.37;;;9.97;;
15679;SDS011;15488;48.114;11.532;2022-08-06T09:12:05;11.07;;;10.07;;
15679;SDS011;15488;48.114;11.532;2022-08-06T09:14:34;11.50;;;10.40;;
15679;SDS011;15488;48.114;11.532;2022-08-06T09:17:03;11.40;;;10.30;;
15679;SDS011;15488;48.114;11.532;2022-08-06T09:19:34;12.07;;;10.87;;
15679;SDS011;15488;48.114;11.532;2022-08-06T09:22:05;11.30;;;10.20;;
15679;SDS011;15488;48.114;11.532;2022-08-06T09:24:33;11.20;;;10.07;;
15679;SDS011;15488;48.114;11.532;2022-08-06T09:27:07;11.27;;;10.17;;
15679;SDS011;15488;48.114;11.532;2022-08-06T09:29:36;11.80;;;10.53;;
15679;SDS011;15488;48.114;11.532;2022-08-06T09:35:19;12.80;;;11.60;;
15679;SDS011;15488;48.114;11.532;2022-08-06T09:37:59;13.17;;;11.90;;
15679;SDS011;15488;48.114;11.532;2022-08-06T09:40:31;14.70;;;12.20;;
15679;SDS011;15488;48.114;11.532;2022-08-06T09:42:59;12.37;;;11.20;;
15679;SDS011;15488;48.114;11.532;2022-08-06T09:45:27;11.97;;;10.77;;
15679;SDS011;15488;48.114;11.532;2022-08-06T09:48:02;12.13;;;10.93;;
15679;SDS011;15488;48.114;11.532;2022-08-06T09:50:39;11.33;;;10.23;;
15679;SDS011;15488;48.114;11.532;2022-08-06T09:53:14;11.50;;;10.40;;
15679;SDS011;15488;48.114;11.532;2022-08-06T09:55:43;11.03;;;10.00;;
15679;SDS011;15488;48.114;11.532;2022-08-06T09:58:11;10.90;;;9.87;;
15679;SDS011;15488;48.114;11.532;2022-08-06T10:00:39;11.77;;;10.47;;
15679;SDS011;15488;48.114;11.532;2022-08-06T10:03:13;12.67;;;11.47;;
15679;SDS011;15488;48.114;11.532;2022-08-06T10:05:45;12.07;;;10.97;;
15679;SDS011;15488;48.114;11.532;2022-08-06T10:08:14;11.40;;;10.30;;
15679;SDS011;15488;48.114;11.532;2022-08-06T10:10:43;11.87;;;10.53;;
15679;SDS011;15488;48.114;11.532;2022-08-06T10:13:14;10.20;;;9.20;;
15679;SDS011;15488;48.114;11.532;2022-08-06T10:15:44;10.10;;;9.10;;
15679;SDS011;15488;48.114;11.532;2022-08-06T10:18:29;9.97;;;8.97;;
15679;SDS011;15488;48.114;11.532;2022-08-06T10:21:03;8.97;;;8.17;;
15679;SDS011;15488;48.114;11.532;2022-08-06T10:23:32;10.03;;;9.03;;
15679;SDS011;15488;48.114;11.532;2022-08-06T10:26:02;8.90;;;8.10;;
15679;SDS011;15488;48.114;11.532;2022-08-06T10:28:36;8.80;;;7.97;;
15679;SDS011;15488;48.114;11.532;2022-08-06T10:31:06;8.23;;;7.47;;
15679;SDS011;15488;48.114;11.532;2022-08-06T10:33:39;9.17;;;8.33;;
15679;SDS011;15488;48.114;11.532;2022-08-06T10:36:12;9.13;;;8.10;;
15679;SDS011;15488;48.114;11.532;2022-08-06T10:38:42;9.00;;;8.10;;
15679;SDS011;15488;48.114;11.532;2022-08-06T10:41:12;8.73;;;7.83;;
15679;SDS011;15488;48.114;11.532;2022-08-06T10:43:40;10.23;;;8.20;;
15679;SDS011;15488;48.114;11.532;2022-08-06T10:46:09;10.00;;;7.60;;
15679;SDS011;15488;48.114;11.532;2022-08-06T10:48:40;11.73;;;10.53;;
15679;SDS011;15488;48.114;11.532;2022-08-06T10:51:10;12.37;;;11.00;;
15679;SDS011;15488;48.114;11.532;2022-08-06T10:53:41;13.20;;;11.83;;
15679;SDS011;15488;48.114;11.532;2022-08-06T10:56:11;11.40;;;10.20;;
15679;SDS011;15488;48.114;11.532;2022-08-06T10:58:40;10.17;;;8.93;;
15679;SDS011;15488;48.114;11.532;2022-08-06T11:01:09;9.50;;;8.37;;
15679;SDS011;15488;48.114;11.532;2022-08-06T11:03:46;9.27;;;7.90;;
15679;SDS011;15488;48.114;11.532;2022-08-06T11:06:36;7.50;;;6.70;;
15679;SDS011;15488;48.114;11.532;2022-08-06T11:09:24;7.47;;;6.77;;
15679;SDS011;15488;48.114;11.532;2022-08-06T11:12:23;8.33;;;7.63;;
15679;SDS011;15488;48.114;11.532;2022-08-06T11:14:57;12.00;;;9.90;;
15679;SDS011;15488;48.114;11.532;2022-08-06T11:17:27;9.27;;;8.47;;
15679;SDS011;15488;48.114;11.532;2022-08-06T11:20:21;7.73;;;6.93;;
15679;SDS011;15488;48.114;11.532;2022-08-06T11:26:06;7.80;;;7.10;;
15679;SDS011;15488;48.114;11.532;2022-08-06T11:31:41;7.77;;;7.07;;
15679;SDS011;15488;48.114;11.532;2022-08-06T11:34:16;7.73;;;7.07;;
15679;SDS011;15488;48.114;11.532;2022-08-06T11:36:47;7.73;;;7.03;;
15679;SDS011;15488;48.114;11.532;2022-08-06T11:39:22;8.13;;;7.33;;
15679;SDS011;15488;48.114;11.532;2022-08-06T11:41:52;8.93;;;8.03;;
15679;SDS011;15488;48.114;11.532;2022-08-06T11:44:24;8.43;;;7.57;;
15679;SDS011;15488;48.114;11.532;2022-08-06T11:47:12;9.03;;;8.23;;
15679;SDS011;15488;48.114;11.532;2022-08-06T11:49:45;8.53;;;7.73;;
15679;SDS011;15488;48.114;11.532;2022-08-06T11:55:11;8.50;;;7.63;;
15679;SDS011;15488;48.114;11.532;2022-08-06T11:57:43;8.43;;;7.73;;
15679;SDS011;15488;48.114;11.532;2022-08-06T12:00:13;8.53;;;7.67;;
15679;SDS011;15488;48.114;11.532;2022-08-06T12:02:48;8.97;;;8.17;;
15679;SDS011;15488;48.114;11.532;2022-08-06T12:08:21;11.90;;;10.77;;
15679;SDS011;15488;48.114;11.532;2022-08-06T12:13:59;9.73;;;8.83;;
15679;SDS011;15488;48.114;11.532;2022-08-06T12:16:32;9.60;;;8.70;;
15679;SDS011;15488;48.114;11.532;2022-08-06T12:19:04;10.20;;;9.27;;
15679;SDS011;15488;48.114;11.532;2022-08-06T12:21:42;11.30;;;10.30;;
15679;SDS011;15488;48.114;11.532;2022-08-06T12:24:22;11.63;;;10.53;;
15679;SDS011;15488;48.114;11.532;2022-08-06T12:26:53;12.43;;;11.30;;
15679;SDS011;15488;48.114;11.532;2022-08-06T12:29:28;12.27;;;11.07;;
15679;SDS011;15488;48.114;11.532;2022-08-06T12:32:00;13.90;;;12.60;;
15679;SDS011;15488;48.114;11.532;2022-08-06T12:34:45;12.57;;;11.33;;
15679;SDS011;15488;48.114;11.532;2022-08-06T12:37:13;12.13;;;11.00;;
15679;SDS011;15488;48.114;11.532;2022-08-06T12:39:41;11.83;;;10.63;;
15679;SDS011;15488;48.114;11.532;2022-08-06T12:42:29;12.00;;;10.90;;
15679;SDS011;15488;48.114;11.532;2022-08-06T12:44:57;11.50;;;10.40;;
15679;SDS011;15488;48.114;11.532;2022-08-06T12:47:25;10.70;;;9.70;;
15679;SDS011;15488;48.114;11.532;2022-08-06T12:49:53;10.70;;;9.73;;
15679;SDS011;15488;48.114;11.532;2022-08-06T12:52:21;10.37;;;9.23;;
15679;SDS011;15488;48.114;11.532;2022-08-06T12:54:49;9.90;;;9.00;;
15679;SDS011;15488;48.114;11.532;2022-08-06T12:57:20;9.83;;;8.93;;
15679;SDS011;15488;48.114;11.532;2022-08-06T12:59:49;10.40;;;9.13;;
15679;SDS011;15488;48.114;11.532;2022-08-06T13:02:19;9.80;;;8.87;;
15679;SDS011;15488;48.114;11.532;2022-08-06T13:04:47;9.47;;;8.57;;
15679;SDS011;15488;48.114;11.532;2022-08-06T13:07:18;10.10;;;9.20;;
15679;SDS011;15488;48.114;11.532;2022-08-06T13:09:46;9.63;;;8.83;;
15679;SDS011;15488;48.114;11.532;2022-08-06T13:12:15;9.00;;;8.10;;
15679;SDS011;15488;48.114;11.532;2022-08-06T13:14:50;9.50;;;8.60;;
15679;SDS011;15488;48.114;11.532;2022-08-06T13:17:22;9.93;;;8.30;;
15679;SDS011;15488;48.114;11.532;2022-08-06T13:19:50;8.50;;;7.70;;
15679;SDS011;15488;48.114;11.532;2022-08-06T13:22:19;8.53;;;7.73;;
15679;SDS011;15488;48.114;11.532;2022-08-06T13:24:47;9.23;;;8.33;;
15679;SDS011;15488;48.114;11.532;2022-08-06T13:27:32;9.00;;;8.20;;
15679;SDS011;15488;48.114;11.532;2022-08-06T13:30:02;8.77;;;7.97;;
15679;SDS011;15488;48.114;11.532;2022-08-06T13:32:32;9.60;;;8.53;;
15679;SDS011;15488;48.114;11.532;2022-08-06T13:35:00;8.77;;;7.97;;
15679;SDS011;15488;48.114;11.532;2022-08-06T13:37:45;9.17;;;8.27;;
15679;SDS011;15488;48.114;11.532;2022-08-06T13:40:14;9.00;;;8.13;;
15679;SDS011;15488;48.114;11.532;2022-08-06T13:42:49;8.73;;;7.93;;
15679;SDS011;15488;48.114;11.532;2022-08-06T13:45:19;8.43;;;7.73;;
15679;SDS011;15488;48.114;11.532;2022-08-06T13:47:48;8.30;;;7.60;;
15679;SDS011;15488;48.114;11.532;2022-08-06T13:50:17;8.30;;;7.60;;
15679;SDS011;15488;48.114;11.532;2022-08-06T13:52:45;9.30;;;8.40;;
15679;SDS011;15488;48.114;11.532;2022-08-06T13:55:12;8.17;;;7.47;;
15679;SDS011;15488;48.114;11.532;2022-08-06T13:57:48;8.20;;;7.50;;
15679;SDS011;15488;48.114;11.532;2022-08-06T14:00:15;8.17;;;7.43;;
15679;SDS011;15488;48.114;11.532;2022-08-06T14:02:44;7.67;;;7.07;;
15679;SDS011;15488;48.114;11.532;2022-08-06T14:05:12;8.00;;;7.33;;
15679;SDS011;15488;48.114;11.532;2022-08-06T14:07:39;8.03;;;7.33;;
15679;SDS011;15488;48.114;11.532;2022-08-06T14:10:07;8.60;;;7.73;;
15679;SDS011;15488;48.114;11.532;2022-08-06T14:12:35;8.03;;;7.33;;
15679;SDS011;15488;48.114;11.532;2022-08-06T14:15:03;8.30;;;7.50;;
15679;SDS011;15488;48.114;11.532;2022-08-06T14:17:31;7.97;;;7.37;;
15679;SDS011;15488;48.114;11.532;2022-08-06T14:20:00;8.30;;;7.60;;
15679;SDS011;15488;48.114;11.532;2022-08-06T14:22:28;7.83;;;7.13;;
15679;SDS011;15488;48.114;11.532;2022-08-06T14:24:56;8.00;;;7.20;;
15679;SDS011;15488;48.114;11.532;2022-08-06T14:27:23;8.87;;;7.53;;
15679;SDS011;15488;48.114;11.532;2022-08-06T14:29:51;7.80;;;7.00;;
15679;SDS011;15488;48.114;11.532;2022-08-06T14:32:19;8.40;;;7.50;;
15679;SDS011;15488;48.114;11.532;2022-08-06T14:34:46;7.03;;;6.43;;
15679;SDS011;15488;48.114;11.532;2022-08-06T14:37:17;7.13;;;6.53;;
15679;SDS011;15488;48.114;11.532;2022-08-06T14:39:45;7.37;;;6.77;;
15679;SDS011;15488;48.114;11.532;2022-08-06T14:42:12;7.37;;;6.67;;
15679;SDS011;15488;48.114;11.532;2022-08-06T14:44:57;7.50;;;6.23;;
15679;SDS011;15488;48.114;11.532;2022-08-06T14:47:29;7.37;;;6.67;;
15679;SDS011;15488;48.114;11.532;2022-08-06T14:49:57;7.53;;;6.93;;
15679;SDS011;15488;48.114;11.532;2022-08-06T14:52:26;7.03;;;6.40;;
15679;SDS011;15488;48.114;11.532;2022-08-06T14:54:53;6.70;;;6.17;;
15679;SDS011;15488;48.114;11.532;2022-08-06T14:57:21;7.30;;;6.70;;
15679;SDS011;15488;48.114;11.532;2022-08-06T14:59:48;6.73;;;6.13;;
15679;SDS011;15488;48.114;11.532;2022-08-06T15:02:16;6.40;;;5.80;;
15679;SDS011;15488;48.114;11.532;2022-08-06T15:04:44;6.47;;;5.97;;
15679;SDS011;15488;48.114;11.532;2022-08-06T15:07:11;7.90;;;7.10;;
15679;SDS011;15488;48.114;11.532;2022-08-06T15:09:40;6.87;;;6.27;;
15679;SDS011;15488;48.114;11.532;2022-08-06T15:12:07;7.03;;;6.43;;
15679;SDS011;15488;48.114;11.532;2022-08-06T15:14:35;6.53;;;5.90;;